Skime, Minnesota
Current Conditions -  °F | °C
As of 8:14 PM on Saturday 25 Oct 2014 (Local Time) from KROX Reporting Station
Clear Clear  
Wind Chill: 44°   Ceiling: Unl
Heat Index: 46°   Visibility: 10mi
Dew Point: 27°   Wind: 5mph
Humidity: 46%   Direction: 250°WSW
Pressure: 29.98"   Gusts: NA
Location:  48.629°N, 95.7336°W
Report Text: KROX 260114Z AUTO 25004KT 10SM CLR 08/M03 A2998 RMK AO2
Loading
Personal Weather Stations






























Interactive Weather Map
Tropical Storm Tracking
New forecast layout! Learn more

10-Day Weather Forecast

Advertisements
Track Severe Weather on mobile